DNMN

Minna Airport

Minna, Nigeria
TAF DNMN 212130Z 2200/2306 28003KT 8000 NSC BECMG 2200/2202 06012KT PROB30 TEMPO 2203/2209 5000 HZ
Issued Valid From Valid To
Jan-21 @ 21:30 UTC
(3 hours ago)
Jan-22 @ 00:00 UTC
(13 minutes ago)
Jan-23 @ 06:00 UTC
(-1 days ago)
Jan-22 @ 00:00 to Jan-23 @ 06:00
TAF DNMN 212130Z 2200/2306 28003KT 8000 NSC
Wind Visibility Clouds
280° at 3 knots 7,998 meters
  • No significant clouds
Becoming Jan-22 @ 00:00 to Jan-23 @ 06:00
BECMG 2200/2202 06012KT
Wind Visibility Clouds
60° at 12 knots 7,998 meters
  • No significant clouds
Temporary  (Probability 30%) Jan-22 @ 03:00 to Jan-22 @ 09:00
PROB30 TEMPO 2203/2209 5000 HZ
Visibility Conditions
5,005 meters
  • Haze
TAF DNMN 212130Z 2200/2306 28003KT 8000 NSC BECMG 2200/2202 06012KT PROB30 TEMPO 2203/2209 5000 HZ
Issued Jan-21 @ 21:30 UTC
(3 hours ago)
Valid From Jan-22 @ 00:00 UTC
(13 minutes ago)
Valid To Jan-23 @ 06:00 UTC
(-1 days ago)
Jan-22 @ 00:00 - Jan-23 @ 06:00
Wind Visibility
280° at 3 knots 7,998 meters
Clouds
  • No significant clouds
Becoming Jan-22 @ 00:00 - Jan-23 @ 06:00
Wind Visibility
60° at 12 knots 7,998 meters
Clouds
  • No significant clouds
Probability 30% Temporary Jan-22 @ 03:00 - Jan-22 @ 09:00
Conditions
  • Haze